Time;durP1;ratioP1;P1;durP2;ratioP2;P2;SDS_P1;SDS_P2;PMS_P1;PMS_P2;Temp;Humidity;BMP_temperature;BMP_pressure;BME280_temperature;BME280_humidity;BME280_pressure;Samples;Min_cycle;Max_cycle;Signal;HPM_P1;HPM_P2
2023/01/03 00:00:16;;;;;;;1.67;0.93;;;17.90;51.10;;;;;;4962150;28;20215;-85
2023/01/03 00:02:41;;;;;;;1.30;0.88;;;17.80;50.90;;;;;;4961874;28;20194;-85
2023/01/03 00:05:07;;;;;;;1.13;0.90;;;17.90;51.00;;;;;;4945805;28;20681;-85
2023/01/03 00:07:33;;;;;;;1.10;0.95;;;18.00;51.20;;;;;;4961730;28;20171;-85
2023/01/03 00:10:08;;;;;;;1.50;0.95;;;17.80;51.00;;;;;;4977905;28;20227;-85
2023/01/03 00:12:35;;;;;;;0.98;0.90;;;17.90;51.20;;;;;;4961707;28;20673;-85
2023/01/03 00:15:02;;;;;;;1.67;0.80;;;17.80;51.20;;;;;;4962073;28;20267;-85
2023/01/03 00:17:28;;;;;;;1.00;0.85;;;17.80;51.20;;;;;;4961402;28;20156;-85
2023/01/03 00:19:53;;;;;;;1.17;1.08;;;17.80;51.30;;;;;;4961434;28;20203;-85
2023/01/03 00:22:19;;;;;;;2.42;1.05;;;17.80;51.20;;;;;;4977678;28;20156;-85
2023/01/03 00:24:46;;;;;;;1.25;0.88;;;17.80;51.20;;;;;;4945719;28;20247;-85
2023/01/03 00:27:13;;;;;;;2.60;1.00;;;17.80;51.30;;;;;;4945443;28;20171;-85
2023/01/03 00:29:39;;;;;;;1.60;1.00;;;17.80;51.30;;;;;;4961373;28;20203;-85
2023/01/03 00:32:05;;;;;;;1.23;0.90;;;17.80;51.20;;;;;;4961487;28;20161;-85
2023/01/03 00:34:30;;;;;;;1.50;0.95;;;17.80;51.20;;;;;;4961184;28;20168;-85
2023/01/03 00:36:56;;;;;;;0.95;0.85;;;17.80;51.10;;;;;;4961078;28;20604;-85
2023/01/03 00:39:22;;;;;;;2.22;0.90;;;17.80;51.20;;;;;;4961076;28;20580;-85
2023/01/03 00:41:47;;;;;;;1.67;0.90;;;17.80;51.20;;;;;;4961141;28;20167;-85
2023/01/03 00:44:13;;;;;;;2.38;1.00;;;17.80;51.30;;;;;;4945209;28;20286;-85
2023/01/03 00:46:39;;;;;;;1.40;0.82;;;17.70;51.20;;;;;;4944901;28;20252;-85
2023/01/03 00:49:04;;;;;;;1.38;1.10;;;17.70;51.20;;;;;;4977045;28;20156;-85
2023/01/03 00:51:32;;;;;;;1.10;0.90;;;17.70;51.30;;;;;;4944921;28;20188;-84
2023/01/03 00:53:58;;;;;;;1.15;0.95;;;17.70;51.20;;;;;;4945310;28;20160;-85
2023/01/03 00:56:26;;;;;;;1.58;1.02;;;17.70;51.30;;;;;;4960991;28;20638;-84
2023/01/03 00:58:52;;;;;;;1.38;1.08;;;17.70;51.20;;;;;;4944903;28;20195;-85
2023/01/03 01:01:20;;;;;;;1.65;0.90;;;17.70;51.40;;;;;;4960749;28;20188;-85
2023/01/03 01:03:49;;;;;;;1.50;0.82;;;17.70;51.30;;;;;;4960945;28;20251;-84
2023/01/03 01:06:19;;;;;;;1.23;0.90;;;17.70;51.40;;;;;;4960893;28;20646;-84
2023/01/03 01:08:45;;;;;;;2.03;0.90;;;17.70;51.40;;;;;;4945083;28;20619;-85
2023/01/03 01:11:11;;;;;;;1.80;0.88;;;17.60;51.40;;;;;;4960747;28;20164;-85
2023/01/03 01:13:37;;;;;;;1.17;0.70;;;17.70;51.40;;;;;;4944726;28;20267;-85
2023/01/03 01:16:05;;;;;;;1.13;0.85;;;17.70;51.30;;;;;;4944710;28;20196;-84
2023/01/03 01:18:32;;;;;;;0.90;0.88;;;17.70;51.50;;;;;;4960625;28;20259;-85
2023/01/03 01:20:58;;;;;;;1.60;0.90;;;17.70;51.50;;;;;;4960531;28;20215;-85
2023/01/03 01:23:24;;;;;;;1.60;0.93;;;17.70;51.40;;;;;;4976534;28;20160;-85
2023/01/03 01:25:49;;;;;;;1.92;0.93;;;17.60;51.50;;;;;;4960223;28;20287;-85
2023/01/03 01:28:15;;;;;;;1.35;1.20;;;17.60;51.50;;;;;;4960568;28;20427;-86
2023/01/03 01:30:41;;;;;;;1.63;1.10;;;17.60;51.50;;;;;;4961591;28;20206;-85
2023/01/03 01:33:06;;;;;;;1.48;0.70;;;17.50;51.50;;;;;;4950709;28;20167;-85
2023/01/03 01:35:32;;;;;;;1.55;0.90;;;17.60;51.50;;;;;;4966883;28;20222;-85
2023/01/03 01:37:58;;;;;;;0.85;0.77;;;17.60;51.40;;;;;;5000465;28;20167;-85
2023/01/03 01:40:26;;;;;;;0.93;0.80;;;17.70;51.40;;;;;;5000568;28;20160;-85
2023/01/03 01:45:30;;;;;;;1.25;0.90;;;17.60;51.60;;;;;;4984624;28;20315;-85
2023/01/03 01:47:58;;;;;;;1.42;0.80;;;17.60;51.60;;;;;;5000107;28;20211;-85
2023/01/03 01:50:52;;;;;;;1.13;0.90;;;17.60;51.60;;;;;;4966951;28;20247;-85
2023/01/03 01:53:24;;;;;;;1.77;1.00;;;17.50;51.70;;;;;;4982791;28;20691;-85
2023/01/03 01:55:55;;;;;;;2.30;1.08;;;17.50;51.70;;;;;;4983725;28;20234;-85
2023/01/03 01:58:24;;;;;;;1.33;0.90;;;17.60;51.80;;;;;;4967691;28;20561;-85
2023/01/03 02:00:50;;;;;;;1.00;0.90;;;17.50;51.70;;;;;;4967427;28;20163;-85
2023/01/03 02:03:16;;;;;;;2.33;0.93;;;17.60;51.80;;;;;;4966607;28;20168;-85
2023/01/03 02:05:45;;;;;;;1.33;1.08;;;17.60;51.80;;;;;;4966582;28;20278;-85
2023/01/03 02:08:10;;;;;;;1.00;0.90;;;17.50;51.80;;;;;;4966595;28;20191;-85
2023/01/03 02:10:56;;;;;;;0.90;0.73;;;17.50;51.90;;;;;;4966539;28;20195;-85
2023/01/03 02:13:34;;;;;;;1.35;0.95;;;17.50;51.90;;;;;;4968447;28;20152;-85
2023/01/03 02:16:26;;;;;;;1.38;1.00;;;17.50;52.00;;;;;;4999925;28;20191;-85
2023/01/03 02:19:18;;;;;;;1.42;0.80;;;17.50;52.00;;;;;;4982454;28;20176;-85
2023/01/03 02:22:24;;;;;;;2.50;1.02;;;17.50;51.90;;;;;;4982665;28;20611;-85
2023/01/03 02:25:24;;;;;;;0.77;0.77;;;17.50;51.90;;;;;;4958203;28;20204;-84
2023/01/03 02:28:18;;;;;;;1.48;0.90;;;17.50;51.90;;;;;;4999863;28;20171;-85
2023/01/03 02:30:50;;;;;;;1.23;0.80;;;17.50;51.80;;;;;;4966591;28;20230;-85
2023/01/03 02:33:23;;;;;;;1.58;1.17;;;17.50;51.80;;;;;;4966510;28;20172;-85
2023/01/03 02:36:22;;;;;;;1.33;0.88;;;17.40;51.80;;;;;;4982626;28;20244;-85
2023/01/03 02:39:00;;;;;;;1.38;0.90;;;17.50;52.00;;;;;;4982358;28;20160;-85
2023/01/03 02:42:56;;;;;;;1.10;0.82;;;17.50;52.00;;;;;;4952251;28;20172;-85
2023/01/03 02:44:37;;;;;;;0.77;0.77;;;17.50;52.00;;;;;;4973501;28;20698;-85
2023/01/03 02:47:05;;;;;;;2.30;0.98;;;17.50;51.90;;;;;;4963106;28;20184;-85
2023/01/03 02:49:34;;;;;;;1.05;0.90;;;17.50;51.90;;;;;;4979467;28;20171;-85
2023/01/03 02:52:03;;;;;;;1.17;0.88;;;17.50;51.90;;;;;;4947217;28;20199;-85
2023/01/03 02:54:36;;;;;;;1.50;0.88;;;17.40;52.10;;;;;;4963194;28;20153;-85
2023/01/03 02:57:05;;;;;;;2.15;1.02;;;17.40;52.00;;;;;;4963328;28;20160;-85
2023/01/03 02:59:36;;;;;;;1.20;0.93;;;17.40;52.00;;;;;;4963382;28;20153;-85
2023/01/03 03:02:02;;;;;;;0.98;0.88;;;17.50;52.10;;;;;;4947203;28;20258;-85
2023/01/03 03:04:28;;;;;;;1.02;0.80;;;17.40;52.70;;;;;;4962683;28;20642;-85
2023/01/03 03:07:06;;;;;;;1.52;1.00;;;17.40;52.00;;;;;;4978835;28;20191;-85
2023/01/03 03:09:31;;;;;;;1.30;0.90;;;17.40;52.00;;;;;;4963203;28;20227;-85
2023/01/03 03:14:42;;;;;;;1.35;0.80;;;17.40;52.20;;;;;;4966844;28;20574;-85
2023/01/03 03:17:11;;;;;;;0.82;0.80;;;17.40;52.10;;;;;;4946745;28;20164;-85
2023/01/03 03:25:15;;;;;;;1.70;0.95;;;17.30;52.10;;;;;;4981054;28;20184;-85
2023/01/03 03:30:19;;;;;;;0.77;0.77;;;17.40;52.20;;;;;;4965598;28;20164;-85
2023/01/03 03:32:45;;;;;;;0.80;0.77;;;17.30;52.10;;;;;;4962491;28;20175;-86
2023/01/03 03:35:13;;;;;;;0.90;0.80;;;17.30;52.20;;;;;;4962453;28;20620;-85
2023/01/03 03:37:39;;;;;;;1.38;0.80;;;17.40;52.10;;;;;;4962589;28;20183;-85
2023/01/03 03:46:03;;;;;;;0.80;0.77;;;17.30;52.10;;;;;;4965324;28;20666;-85
2023/01/03 03:51:30;;;;;;;1.73;0.90;;;17.40;52.30;;;;;;4980342;28;20535;-85
2023/01/03 03:53:56;;;;;;;2.45;1.00;;;17.30;52.10;;;;;;4977859;28;20156;-85
2023/01/03 03:56:24;;;;;;;1.35;1.10;;;17.40;52.30;;;;;;4978089;28;20210;-85
2023/01/03 03:58:52;;;;;;;1.63;0.80;;;17.40;52.30;;;;;;4962198;28;20160;-85
2023/01/03 04:01:19;;;;;;;1.27;0.88;;;17.30;52.30;;;;;;4962237;28;20152;-85
2023/01/03 04:03:45;;;;;;;1.38;0.93;;;17.30;52.20;;;;;;4962150;28;20161;-84
2023/01/03 04:06:16;;;;;;;1.20;0.90;;;17.40;52.30;;;;;;4945639;28;20721;-85
2023/01/03 04:08:41;;;;;;;1.20;0.77;;;17.30;52.20;;;;;;4978355;28;20391;-84
2023/01/03 04:11:07;;;;;;;1.15;1.00;;;17.30;52.10;;;;;;4977713;28;20670;-85
2023/01/03 04:13:35;;;;;;;1.55;0.90;;;17.30;52.20;;;;;;4945681;28;20262;-85
2023/01/03 04:16:01;;;;;;;1.30;1.05;;;17.30;52.30;;;;;;4961973;28;20219;-85
2023/01/03 04:18:26;;;;;;;0.63;0.63;;;17.30;52.30;;;;;;4961487;28;20173;-85
2023/01/03 04:20:52;;;;;;;1.20;0.95;;;17.30;52.30;;;;;;4945506;28;20615;-85
2023/01/03 04:23:18;;;;;;;1.00;0.70;;;17.30;52.10;;;;;;4961881;28;20153;-85
2023/01/03 04:25:45;;;;;;;0.82;0.75;;;17.30;52.20;;;;;;4945354;28;20191;-85
2023/01/03 04:28:10;;;;;;;1.17;0.80;;;17.30;52.30;;;;;;4961693;28;20603;-85
2023/01/03 04:30:36;;;;;;;2.05;0.60;;;17.30;52.30;;;;;;4977424;28;20619;-85
2023/01/03 04:33:04;;;;;;;1.48;0.77;;;17.30;52.20;;;;;;4961100;28;20202;-85
2023/01/03 04:35:31;;;;;;;0.93;0.70;;;17.30;52.30;;;;;;4961760;28;20204;-85
2023/01/03 04:37:57;;;;;;;0.88;0.70;;;17.30;52.30;;;;;;4945297;28;20283;-85
2023/01/03 04:40:22;;;;;;;1.17;0.93;;;17.30;52.30;;;;;;4961378;28;20247;-85
2023/01/03 04:45:28;;;;;;;0.80;0.80;;;17.30;52.20;;;;;;4979054;28;20187;-85
2023/01/03 04:47:54;;;;;;;0.93;0.80;;;17.30;52.20;;;;;;4960898;28;20630;-85
2023/01/03 04:50:19;;;;;;;1.13;1.02;;;17.30;52.30;;;;;;4977057;28;20191;-85
2023/01/03 04:52:45;;;;;;;0.90;0.75;;;17.30;52.10;;;;;;4944790;28;20164;-85
2023/01/03 04:55:12;;;;;;;1.08;0.82;;;17.30;52.30;;;;;;4977247;28;20234;-84
2023/01/03 04:57:37;;;;;;;1.30;0.80;;;17.30;52.20;;;;;;4960816;28;20543;-85
2023/01/03 05:00:04;;;;;;;1.67;0.70;;;17.30;52.30;;;;;;4961111;28;20164;-85
2023/01/03 05:02:29;;;;;;;1.63;0.85;;;17.30;52.40;;;;;;4977033;28;20171;-85
2023/01/03 05:04:55;;;;;;;1.23;0.93;;;17.30;52.30;;;;;;4960569;28;20191;-85
2023/01/03 05:07:21;;;;;;;1.95;0.77;;;17.20;52.30;;;;;;4960284;28;20163;-85
2023/01/03 05:09:46;;;;;;;1.05;0.85;;;17.30;52.40;;;;;;4960484;28;20223;-85
2023/01/03 05:12:12;;;;;;;1.33;0.80;;;17.30;52.40;;;;;;4961175;28;20162;-85
2023/01/03 05:14:40;;;;;;;1.38;0.80;;;17.30;52.40;;;;;;4967876;28;20587;-85
2023/01/03 05:17:07;;;;;;;1.63;0.98;;;17.30;52.40;;;;;;4968707;28;20196;-85
2023/01/03 05:19:33;;;;;;;1.08;0.93;;;17.20;52.40;;;;;;4968123;28;20288;-85
2023/01/03 05:27:21;;;;;;;0.82;0.77;;;17.20;52.30;;;;;;4963903;28;20148;-85
2023/01/03 05:29:48;;;;;;;0.90;0.80;;;17.20;52.40;;;;;;4960484;28;20165;-85
2023/01/03 05:32:14;;;;;;;0.73;0.70;;;17.20;52.30;;;;;;4960915;28;20163;-85
2023/01/03 05:34:40;;;;;;;1.20;0.80;;;17.30;52.40;;;;;;4976893;28;20699;-85
2023/01/03 05:37:06;;;;;;;1.15;0.93;;;17.30;52.40;;;;;;4976581;28;20218;-85
2023/01/03 05:39:32;;;;;;;1.13;0.80;;;17.20;52.30;;;;;;4945440;28;20167;-85
2023/01/03 05:41:59;;;;;;;1.05;0.70;;;17.20;52.40;;;;;;4976472;28;20148;-85
2023/01/03 05:44:26;;;;;;;1.17;0.90;;;17.20;52.50;;;;;;4961106;28;20184;-86
2023/01/03 05:46:51;;;;;;;0.90;0.90;;;17.20;52.40;;;;;;4960444;28;20156;-85
2023/01/03 05:49:17;;;;;;;1.17;0.85;;;17.20;52.40;;;;;;4960324;28;20165;-85
2023/01/03 05:51:43;;;;;;;1.70;1.05;;;17.20;52.30;;;;;;4960565;28;20156;-85
2023/01/03 05:54:16;;;;;;;0.88;0.77;;;17.20;52.40;;;;;;4976150;28;20167;-85
2023/01/03 05:56:42;;;;;;;1.52;0.80;;;17.20;52.40;;;;;;4945290;28;20164;-84
2023/01/03 05:59:08;;;;;;;1.13;0.70;;;17.20;52.40;;;;;;4960188;28;20512;-85
2023/01/03 06:01:34;;;;;;;0.73;0.70;;;17.20;52.40;;;;;;4976293;28;20528;-85
2023/01/03 06:03:59;;;;;;;1.10;0.75;;;17.20;52.40;;;;;;4960153;28;20164;-85
2023/01/03 06:06:26;;;;;;;0.70;0.70;;;17.20;52.50;;;;;;4976115;28;20166;-84
2023/01/03 06:08:53;;;;;;;1.75;0.70;;;17.20;52.50;;;;;;4960054;28;20219;-84
2023/01/03 06:11:19;;;;;;;1.00;0.90;;;17.20;52.50;;;;;;4976930;28;20200;-84
2023/01/03 06:13:44;;;;;;;1.27;0.70;;;17.20;52.40;;;;;;4960096;28;20560;-85
2023/01/03 06:18:48;;;;;;;0.80;0.60;;;17.20;52.50;;;;;;4980985;28;20162;-84
2023/01/03 06:21:14;;;;;;;0.90;0.90;;;17.20;52.50;;;;;;4964072;28;20160;-85
2023/01/03 06:23:39;;;;;;;0.75;0.70;;;17.20;52.40;;;;;;4963827;28;20172;-85
2023/01/03 06:26:05;;;;;;;0.70;0.70;;;17.20;52.40;;;;;;4963454;28;20287;-85
2023/01/03 06:28:30;;;;;;;0.90;0.70;;;17.20;52.50;;;;;;4979662;28;20180;-85
2023/01/03 06:30:56;;;;;;;1.70;0.70;;;17.20;52.50;;;;;;4980103;28;20184;-85
2023/01/03 06:33:22;;;;;;;1.60;0.75;;;17.10;52.50;;;;;;4979444;28;20187;-85
2023/01/03 06:35:48;;;;;;;0.85;0.70;;;17.20;53.20;;;;;;4947847;28;20190;-85
2023/01/03 06:38:14;;;;;;;0.88;0.68;;;17.20;52.40;;;;;;4963593;28;20174;-85
2023/01/03 06:40:47;;;;;;;2.10;0.90;;;17.20;52.50;;;;;;4979317;28;20235;-85
2023/01/03 06:43:12;;;;;;;1.05;0.90;;;17.20;52.50;;;;;;4947416;28;20168;-85
2023/01/03 06:53:39;;;;;;;1.65;0.70;;;17.20;52.50;;;;;;4967136;28;20160;-85
2023/01/03 06:56:05;;;;;;;0.88;0.80;;;17.20;52.40;;;;;;4963256;28;20157;-85
2023/01/03 06:58:30;;;;;;;1.95;1.00;;;17.20;52.40;;;;;;4962957;28;20171;-85
2023/01/03 07:01:02;;;;;;;1.25;0.85;;;17.20;52.30;;;;;;4947243;28;20184;-85
2023/01/03 07:03:29;;;;;;;0.77;0.63;;;17.20;52.30;;;;;;4947768;28;20291;-85
2023/01/03 07:05:55;;;;;;;1.65;0.75;;;17.20;52.20;;;;;;4996643;28;20188;-85
2023/01/03 07:08:20;;;;;;;1.65;0.70;;;17.20;52.30;;;;;;4963040;28;20156;-85
2023/01/03 07:10:47;;;;;;;0.55;0.55;;;17.20;52.30;;;;;;4996291;28;20198;-85
2023/01/03 07:15:58;;;;;;;2.15;0.70;;;17.20;52.30;;;;;;4996279;28;20157;-85
2023/01/03 07:18:25;;;;;;;1.27;0.70;;;17.20;52.40;;;;;;4963186;28;20171;-85
2023/01/03 07:20:51;;;;;;;1.23;0.70;;;17.20;52.50;;;;;;4964098;28;20243;-85
2023/01/03 07:23:16;;;;;;;0.70;0.65;;;17.20;52.40;;;;;;4963439;28;20250;-85
2023/01/03 07:25:42;;;;;;;1.00;0.80;;;17.20;52.30;;;;;;4963516;28;20219;-85
2023/01/03 07:28:10;;;;;;;1.52;0.70;;;17.20;52.00;;;;;;4963385;28;20152;-85
2023/01/03 07:30:38;;;;;;;0.60;0.60;;;17.30;51.80;;;;;;4978965;28;20244;-84
2023/01/03 07:33:05;;;;;;;0.77;0.60;;;17.40;51.50;;;;;;4947706;28;20303;-86
2023/01/03 07:35:33;;;;;;;0.52;0.52;;;17.40;51.40;;;;;;4947649;28;20179;-85
2023/01/03 07:37:59;;;;;;;1.02;0.82;;;17.40;51.10;;;;;;4947633;28;20175;-85
2023/01/03 07:40:25;;;;;;;0.57;0.57;;;17.50;50.90;;;;;;4947208;28;20168;-85
2023/01/03 07:45:27;;;;;;;1.38;0.70;;;17.60;51.00;;;;;;4979665;28;20187;-85
2023/01/03 07:47:53;;;;;;;0.85;0.65;;;17.60;50.80;;;;;;4971689;28;20547;-85
2023/01/03 07:50:19;;;;;;;1.00;0.80;;;17.60;50.60;;;;;;4943032;28;20227;-85
2023/01/03 07:52:44;;;;;;;1.77;0.60;;;17.60;50.50;;;;;;4932146;28;20261;-84
2023/01/03 07:55:10;;;;;;;0.95;0.70;;;17.70;50.80;;;;;;4944575;28;20160;-85
2023/01/03 07:57:43;;;;;;;0.63;0.50;;;17.70;50.50;;;;;;4959814;28;20165;-86
2023/01/03 08:00:10;;;;;;;0.60;0.60;;;17.70;50.60;;;;;;4945526;28;20157;-85
2023/01/03 08:02:35;;;;;;;0.95;0.70;;;17.60;50.90;;;;;;4944160;28;20536;-85
2023/01/03 08:05:01;;;;;;;0.70;0.68;;;17.60;51.00;;;;;;4959920;28;20284;-85
2023/01/03 08:07:30;;;;;;;0.93;0.80;;;17.70;50.60;;;;;;4944219;28;20680;-85
2023/01/03 08:15:17;;;;;;;1.17;0.70;;;17.70;51.00;;;;;;4966664;28;20534;-85
2023/01/03 08:17:43;;;;;;;0.70;0.70;;;17.70;50.80;;;;;;4981969;28;20615;-85
2023/01/03 08:20:08;;;;;;;0.68;0.60;;;17.70;50.90;;;;;;4964694;28;20184;-85
2023/01/03 08:22:34;;;;;;;0.77;0.68;;;17.70;51.00;;;;;;4995906;28;20247;-84
2023/01/03 08:25:00;;;;;;;0.93;0.60;;;17.60;50.50;;;;;;4979513;28;20643;-84
2023/01/03 08:27:25;;;;;;;0.70;0.60;;;17.80;49.60;;;;;;4978883;28;20199;-85
2023/01/03 08:29:51;;;;;;;1.05;0.63;;;17.80;49.80;;;;;;4947712;28;20204;-85
2023/01/03 08:32:18;;;;;;;0.75;0.60;;;17.90;49.40;;;;;;4963264;28;20230;-85
2023/01/03 08:34:47;;;;;;;2.25;0.60;;;18.00;49.90;;;;;;4963547;28;20176;-84
2023/01/03 08:37:13;;;;;;;2.58;0.60;;;17.90;49.90;;;;;;4948236;28;20172;-84
2023/01/03 08:39:41;;;;;;;1.85;0.90;;;18.00;49.90;;;;;;4964145;28;20172;-84
2023/01/03 08:42:12;;;;;;;1.85;0.75;;;17.90;49.50;;;;;;4962180;28;20164;-85
2023/01/03 08:44:37;;;;;;;6.35;0.73;;;18.00;49.80;;;;;;4980192;28;20569;-85
2023/01/03 08:47:03;;;;;;;9.20;1.00;;;17.90;49.90;;;;;;4964646;28;20160;-85
2023/01/03 08:49:29;;;;;;;6.20;1.20;;;18.00;50.10;;;;;;4980010;28;20176;-85
2023/01/03 08:52:01;;;;;;;6.00;0.88;;;18.00;49.80;;;;;;4981790;28;20168;-84
2023/01/03 08:54:31;;;;;;;4.43;0.70;;;18.00;50.00;;;;;;4950286;28;20182;-85
2023/01/03 08:56:57;;;;;;;6.78;1.02;;;18.00;49.60;;;;;;4972658;28;20172;-84
2023/01/03 08:59:25;;;;;;;10.25;1.10;;;18.00;50.10;;;;;;4980054;28;20544;-85
2023/01/03 09:01:58;;;;;;;10.25;1.10;;;18.00;49.90;;;;;;4980241;28;20167;-85
2023/01/03 09:04:24;;;;;;;4.93;0.80;;;18.00;50.20;;;;;;4964749;28;20185;-84
2023/01/03 09:06:50;;;;;;;8.63;1.33;;;18.10;50.10;;;;;;4959658;28;20164;-84
2023/01/03 09:09:16;;;;;;;5.93;0.85;;;18.00;50.80;;;;;;4967427;28;20270;-85
2023/01/03 09:11:41;;;;;;;1.48;0.55;;;18.00;50.70;;;;;;5000844;28;20235;-85
2023/01/03 09:14:09;;;;;;;2.72;0.75;;;18.00;50.30;;;;;;4950504;28;20176;-86
2023/01/03 09:16:35;;;;;;;5.55;0.73;;;18.00;50.30;;;;;;4955164;28;20178;-87
2023/01/03 09:19:03;;;;;;;2.55;0.90;;;18.00;50.10;;;;;;4931939;28;20165;-86
2023/01/03 09:21:30;;;;;;;4.03;0.90;;;18.10;50.50;;;;;;4976907;28;20230;-85
2023/01/03 09:23:57;;;;;;;7.18;0.98;;;18.10;50.60;;;;;;4955798;28;20176;-85
2023/01/03 09:26:23;;;;;;;10.88;1.30;;;18.10;51.10;;;;;;4937626;28;20192;-85
2023/01/03 09:28:50;;;;;;;8.80;1.20;;;18.10;50.40;;;;;;4945696;28;20523;-85
2023/01/03 09:31:16;;;;;;;11.32;1.20;;;18.10;50.80;;;;;;4944257;28;20160;-86
2023/01/03 09:33:42;;;;;;;10.60;1.33;;;18.20;49.80;;;;;;4961674;28;20242;-84
2023/01/03 09:36:08;;;;;;;11.77;1.05;;;18.20;50.70;;;;;;4961851;28;20168;-86
2023/01/03 09:38:34;;;;;;;15.07;1.50;;;18.20;50.50;;;;;;4964500;28;20187;-84
2023/01/03 09:41:01;;;;;;;18.52;1.48;;;18.20;50.70;;;;;;4959098;28;20169;-82
2023/01/03 09:43:39;;;;;;;11.23;1.30;;;18.20;50.30;;;;;;4962134;28;20164;-86
2023/01/03 09:46:21;;;;;;;14.60;1.10;;;18.20;50.70;;;;;;4964386;28;20568;-84
2023/01/03 09:48:48;;;;;;;9.80;1.30;;;18.10;50.90;;;;;;4985355;28;20175;-87
2023/01/03 10:05:40;;;;;;;5.55;0.93;;;18.10;51.40;;;;;;4938377;29;20249;-85
2023/01/03 10:08:22;;;;;;;6.88;0.70;;;18.10;51.10;;;;;;4921876;29;20658;-86
2023/01/03 10:11:02;;;;;;;4.28;0.80;;;18.10;50.80;;;;;;4922609;29;20246;-85
2023/01/03 10:13:52;;;;;;;5.32;0.95;;;18.20;49.30;;;;;;4940596;29;20189;-86
2023/01/03 10:16:42;;;;;;;6.03;0.88;;;18.30;49.40;;;;;;4910005;29;20185;-87
2023/01/03 10:20:09;;;;;;;8.15;1.00;;;18.30;49.20;;;;;;4886859;29;20767;-86
2023/01/03 10:22:40;;;;;;;3.75;1.02;;;18.40;48.90;;;;;;4877085;29;20203;-85
2023/01/03 10:25:12;;;;;;;7.18;1.08;;;18.30;48.30;;;;;;4884279;29;20289;-86
2023/01/03 10:27:45;;;;;;;4.30;0.80;;;18.40;49.30;;;;;;4864853;29;20337;-83
2023/01/03 10:30:15;;;;;;;6.25;0.75;;;18.40;50.30;;;;;;4891206;29;20557;-85
2023/01/03 10:32:53;;;;;;;3.65;0.85;;;18.30;49.20;;;;;;4893127;29;20174;-84
2023/01/03 10:35:23;;;;;;;6.80;0.90;;;18.40;48.40;;;;;;4891967;29;20167;-86
2023/01/03 10:37:50;;;;;;;14.65;1.30;;;18.40;49.80;;;;;;4890006;29;20186;-85
2023/01/03 10:40:16;;;;;;;8.27;0.90;;;18.30;50.70;;;;;;4875412;29;20625;-85
2023/01/03 10:42:42;;;;;;;7.82;1.10;;;18.20;50.00;;;;;;4891606;29;20231;-86
2023/01/03 10:45:13;;;;;;;4.70;0.88;;;18.30;49.00;;;;;;4921096;29;20662;-85
2023/01/03 10:47:38;;;;;;;7.28;0.82;;;18.30;50.00;;;;;;4873376;29;20218;-84
2023/01/03 10:50:05;;;;;;;6.70;1.48;;;18.30;50.10;;;;;;4925044;28;20177;-85
2023/01/03 10:52:36;;;;;;;6.60;0.88;;;18.20;50.40;;;;;;4948032;28;20148;-85
2023/01/03 10:55:12;;;;;;;4.13;0.75;;;18.30;50.30;;;;;;4933926;28;20181;-83
2023/01/03 10:57:51;;;;;;;2.95;0.60;;;18.30;49.60;;;;;;4933269;28;20176;-84
2023/01/03 11:00:33;;;;;;;1.90;0.75;;;18.40;49.20;;;;;;4965077;28;20618;-85
2023/01/03 11:03:15;;;;;;;5.90;0.90;;;18.40;48.50;;;;;;4946058;28;20179;-84
2023/01/03 11:05:42;;;;;;;4.68;0.70;;;18.40;49.20;;;;;;4962355;28;20188;-85
2023/01/03 11:08:23;;;;;;;4.97;0.85;;;18.40;48.40;;;;;;4947434;28;20716;-86
2023/01/03 11:10:52;;;;;;;3.95;1.15;;;18.50;48.70;;;;;;4977295;28;20218;-85
2023/01/03 11:13:23;;;;;;;5.10;0.95;;;18.50;49.20;;;;;;4944485;28;20179;-86
2023/01/03 11:15:53;;;;;;;11.57;1.00;;;18.50;48.30;;;;;;4945614;28;20165;-85
2023/01/03 11:18:28;;;;;;;3.65;0.68;;;18.40;49.10;;;;;;4963229;28;20516;-85
2023/01/03 11:21:30;;;;;;;6.75;0.90;;;18.40;50.20;;;;;;4931156;28;20247;-84
2023/01/03 11:24:07;;;;;;;8.13;0.80;;;18.40;51.00;;;;;;4933910;28;20634;-86
2023/01/03 11:26:49;;;;;;;4.03;0.60;;;18.30;50.00;;;;;;4963857;28;20236;-85
2023/01/03 11:29:57;;;;;;;5.18;0.95;;;18.40;50.10;;;;;;4926564;29;20189;-85
2023/01/03 11:33:04;;;;;;;7.72;1.05;;;18.40;49.80;;;;;;4927395;29;20190;-82
2023/01/03 11:35:50;;;;;;;9.20;1.05;;;18.40;49.20;;;;;;4944196;29;20178;-84
2023/01/03 11:38:47;;;;;;;5.57;0.95;;;18.40;50.40;;;;;;4942741;29;20249;-85
2023/01/03 11:41:47;;;;;;;4.60;0.70;;;18.40;49.60;;;;;;4913540;29;20202;-85
2023/01/03 11:44:51;;;;;;;2.92;0.63;;;18.50;49.90;;;;;;4911913;29;20673;-86
2023/01/03 11:47:34;;;;;;;3.67;0.70;;;18.60;49.10;;;;;;4916121;29;20166;-87
2023/01/03 11:50:12;;;;;;;5.65;0.75;;;18.60;49.60;;;;;;4887185;29;20706;-85
2023/01/03 11:53:21;;;;;;;4.25;0.75;;;18.60;49.10;;;;;;4869140;29;20176;-86
2023/01/03 11:55:55;;;;;;;4.65;0.88;;;18.50;49.80;;;;;;4882675;29;20634;-86
2023/01/03 11:58:53;;;;;;;4.32;0.98;;;18.50;49.90;;;;;;4870457;29;20214;-85
2023/01/03 12:01:41;;;;;;;5.47;0.82;;;18.50;49.60;;;;;;4924288;29;20175;-86
2023/01/03 12:04:23;;;;;;;5.72;1.05;;;18.60;49.90;;;;;;4888918;29;20183;-85
2023/01/03 12:07:08;;;;;;;4.35;1.13;;;18.50;50.50;;;;;;4899574;29;20177;-86
2023/01/03 12:09:56;;;;;;;3.88;0.60;;;18.50;50.40;;;;;;4883073;29;20344;-85
2023/01/03 12:13:01;;;;;;;5.35;0.80;;;18.40;50.70;;;;;;4882627;29;20195;-85
2023/01/03 12:15:43;;;;;;;0.80;0.60;;;18.40;50.70;;;;;;4882830;29;20201;-85
2023/01/03 12:18:33;;;;;;;1.20;0.60;;;18.40;49.80;;;;;;4863598;29;20303;-84
2023/01/03 12:21:04;;;;;;;2.90;0.70;;;18.50;49.20;;;;;;4891176;29;20316;-85
2023/01/03 12:23:37;;;;;;;5.18;0.73;;;18.50;49.80;;;;;;4924051;29;20264;-85
2023/01/03 12:26:06;;;;;;;2.45;0.50;;;18.60;49.60;;;;;;4909003;29;20706;-84
2023/01/03 12:28:38;;;;;;;2.05;0.52;;;18.60;49.80;;;;;;4925588;29;20180;-84
2023/01/03 12:31:21;;;;;;;2.22;0.73;;;18.50;49.90;;;;;;4911511;29;20176;-84
2023/01/03 12:33:54;;;;;;;2.75;0.45;;;18.50;50.00;;;;;;4928833;29;20239;-86
2023/01/03 12:36:40;;;;;;;1.38;0.50;;;18.50;49.80;;;;;;4974452;28;20152;-84
2023/01/03 12:39:27;;;;;;;1.95;0.75;;;18.50;49.60;;;;;;4997998;28;20156;-84
2023/01/03 12:42:00;;;;;;;4.90;0.70;;;18.50;50.10;;;;;;4972074;28;20199;-85
2023/01/03 12:44:31;;;;;;;1.45;0.73;;;18.50;49.60;;;;;;4948594;28;20548;-85
2023/01/03 12:46:58;;;;;;;2.55;0.50;;;18.50;49.70;;;;;;4964495;28;20299;-85
2023/01/03 12:49:43;;;;;;;0.40;0.40;;;18.50;49.30;;;;;;4980798;28;20152;-85
2023/01/03 12:52:13;;;;;;;1.65;0.70;;;18.50;49.80;;;;;;4965034;28;20263;-86
2023/01/03 12:54:41;;;;;;;2.25;0.60;;;18.50;49.70;;;;;;4920464;29;20630;-85
2023/01/03 12:57:38;;;;;;;2.30;0.50;;;18.50;49.80;;;;;;4921350;29;20213;-82
2023/01/03 13:00:32;;;;;;;1.27;0.50;;;18.60;49.80;;;;;;4924993;29;20189;-82
2023/01/03 13:03:21;;;;;;;6.70;0.60;;;18.50;50.20;;;;;;4920542;29;20185;-85
2023/01/03 13:05:50;;;;;;;1.38;0.47;;;18.50;50.70;;;;;;4907371;29;20224;-83
2023/01/03 13:08:34;;;;;;;0.47;0.40;;;18.40;50.50;;;;;;4906062;29;20178;-84
2023/01/03 13:11:04;;;;;;;0.95;0.50;;;18.40;50.30;;;;;;4906875;29;20185;-83
2023/01/03 13:13:30;;;;;;;1.88;0.60;;;18.50;50.80;;;;;;4908017;29;20162;-83
2023/01/03 13:15:56;;;;;;;3.20;0.60;;;18.40;51.00;;;;;;4922566;29;20321;-83
2023/01/03 13:18:40;;;;;;;0.45;0.40;;;18.50;50.90;;;;;;4923566;29;20166;-83
2023/01/03 13:21:41;;;;;;;3.78;0.73;;;18.50;50.90;;;;;;4910059;29;20181;-85
2023/01/03 13:24:12;;;;;;;1.25;0.55;;;18.50;51.00;;;;;;4920634;29;20534;-85
2023/01/03 13:27:11;;;;;;;1.75;0.47;;;18.50;51.00;;;;;;4926008;29;20170;-84
2023/01/03 13:30:17;;;;;;;5.78;0.60;;;18.50;51.00;;;;;;4911740;29;20193;-86
2023/01/03 13:33:16;;;;;;;1.42;0.50;;;18.60;51.50;;;;;;4910894;29;20181;-87
2023/01/03 13:35:58;;;;;;;3.15;0.50;;;18.60;50.90;;;;;;4892008;29;20669;-84
2023/01/03 13:38:29;;;;;;;2.08;0.50;;;18.60;51.10;;;;;;4899674;29;20216;-84
2023/01/03 13:41:10;;;;;;;2.15;0.73;;;18.70;50.80;;;;;;4909479;29;20170;-85
2023/01/03 13:43:52;;;;;;;;;;;;;;;;;;;;;
2023/01/03 13:46:30;;;;;;;2.80;0.82;;;18.70;50.10;;;;;;4891365;29;20693;-85
2023/01/03 13:49:16;;;;;;;3.88;0.70;;;18.70;51.10;;;;;;4920060;29;20166;-86
2023/01/03 14:53:00;;;;;;;13.68;0.90;;;18.70;50.40;;;;;;4978955;28;20306;-84
2023/01/03 14:55:28;;;;;;;4.78;0.77;;;18.80;50.60;;;;;;4947787;28;20173;-85
2023/01/03 14:57:56;;;;;;;9.00;0.82;;;18.80;50.70;;;;;;4951415;28;20199;-88
2023/01/03 15:00:38;;;;;;;8.63;0.65;;;18.80;50.60;;;;;;4952806;28;20516;-87
2023/01/03 15:03:35;;;;;;;17.55;1.50;;;18.80;50.50;;;;;;4951741;28;20276;-89
2023/01/03 15:06:38;;;;;;;;;;;;;;;;;;;;;
2023/01/03 15:09:31;;;;;;;;;;;;;;;;;;;;;
2023/01/03 15:12:06;;;;;;;9.43;1.20;;;18.80;50.80;;;;;;4892125;29;20383;-89
2023/01/03 15:14:58;;;;;;;8.77;0.90;;;18.80;50.60;;;;;;4869722;29;20183;-86
2023/01/03 15:17:25;;;;;;;10.60;1.13;;;18.80;50.60;;;;;;4864143;29;20244;-86
2023/01/03 15:19:54;;;;;;;12.27;1.10;;;18.80;50.80;;;;;;4846745;29;20184;-86
2023/01/03 15:23:01;;;;;;;9.75;0.80;;;18.80;50.30;;;;;;4855246;29;20184;-87